createdAt,value
2023-02-08T00:01:32.377Z,45.50
2023-02-08T00:04:01.517Z,45.50
2023-02-08T00:06:30.626Z,56.80
2023-02-08T00:09:01.621Z,58.00
2023-02-08T00:11:31.353Z,48.80
2023-02-08T00:13:59.917Z,50.40
2023-02-08T00:16:28.656Z,48.10
2023-02-08T00:18:57.794Z,50.60
2023-02-08T00:21:27.297Z,55.70
2023-02-08T00:23:57.077Z,51.10
2023-02-08T00:26:26.169Z,43.90
2023-02-08T00:28:54.789Z,48.20
2023-02-08T00:31:24.043Z,31.80
2023-02-08T00:33:53.059Z,33.50
2023-02-08T00:36:21.629Z,38.50
2023-02-08T00:38:50.627Z,50.80
2023-02-08T00:41:20.710Z,51.10
2023-02-08T00:43:50.524Z,45.80
2023-02-08T00:46:19.344Z,42.00
2023-02-08T00:48:48.707Z,45.80
2023-02-08T00:51:17.519Z,31.90
2023-02-08T00:53:46.852Z,37.50
2023-02-08T00:56:17.437Z,42.60
2023-02-08T00:58:46.396Z,48.40
2023-02-08T01:01:15.755Z,40.90
2023-02-08T01:03:45.339Z,39.30
2023-02-08T01:08:44.034Z,43.70
2023-02-08T01:11:22.021Z,47.30
2023-02-08T01:13:52.742Z,37.20
2023-02-08T01:16:24.006Z,42.00
2023-02-08T01:18:55.984Z,42.20
2023-02-08T01:21:28.732Z,42.70
2023-02-08T01:23:59.974Z,47.90
2023-02-08T01:26:31.602Z,44.10
2023-02-08T01:29:01.376Z,42.60
2023-02-08T01:31:35.953Z,39.40
2023-02-08T01:34:06.422Z,38.20
2023-02-08T01:36:35.257Z,40.10
2023-02-08T01:39:06.317Z,45.40
2023-02-08T01:41:38.782Z,46.30
2023-02-08T01:44:18.370Z,44.60
2023-02-08T01:49:31.166Z,43.80
2023-02-08T01:52:09.695Z,41.60
2023-02-08T01:54:56.616Z,38.70
2023-02-08T01:57:26.837Z,38.40
2023-02-08T02:00:03.679Z,36.40
2023-02-08T02:02:44.096Z,40.60
2023-02-08T02:05:14.190Z,36.60
2023-02-08T02:07:43.723Z,38.00
2023-02-08T02:12:45.099Z,35.30
2023-02-08T02:15:14.106Z,37.70
2023-02-08T02:17:43.466Z,34.60
2023-02-08T02:20:37.998Z,37.80
2023-02-08T02:23:42.092Z,38.40
2023-02-08T02:26:29.820Z,33.40
2023-02-08T02:29:17.408Z,33.30
2023-02-08T02:32:20.222Z,35.40
2023-02-08T02:35:16.097Z,37.50
2023-02-08T02:38:09.907Z,36.40
2023-02-08T02:40:55.354Z,35.50
2023-02-08T02:43:45.624Z,30.80
2023-02-08T02:46:40.732Z,30.30
2023-02-08T02:49:13.484Z,36.60
2023-02-08T02:52:16.957Z,34.60
2023-02-08T02:54:52.639Z,31.70
2023-02-08T02:57:33.161Z,32.80
2023-02-08T03:00:08.366Z,37.20
2023-02-08T03:02:37.215Z,34.00
2023-02-08T03:05:11.987Z,37.90
2023-02-08T03:07:46.818Z,34.70
2023-02-08T03:10:37.708Z,30.60
2023-02-08T03:13:36.522Z,30.40
2023-02-08T03:16:52.321Z,30.30
2023-02-08T03:19:37.794Z,29.60
2023-02-08T03:22:15.969Z,31.30
2023-02-08T03:24:54.060Z,29.40
2023-02-08T03:28:15.272Z,32.30
2023-02-08T03:30:57.411Z,34.60
2023-02-08T03:33:47.403Z,32.50
2023-02-08T03:36:48.501Z,31.50
2023-02-08T03:39:23.332Z,32.80
2023-02-08T03:41:57.261Z,34.70
2023-02-08T03:44:37.374Z,34.90
2023-02-08T03:47:19.100Z,34.20
2023-02-08T03:49:52.443Z,33.30
2023-02-08T03:52:23.125Z,36.40
2023-02-08T03:54:59.290Z,34.30
2023-02-08T03:57:39.087Z,35.10
2023-02-08T04:00:11.582Z,24.20
2023-02-08T04:03:09.530Z,39.00
2023-02-08T04:05:38.327Z,36.40
2023-02-08T04:08:07.435Z,33.60
2023-02-08T04:10:36.119Z,39.00
2023-02-08T04:13:04.915Z,36.20
2023-02-08T04:15:33.974Z,38.20
2023-02-08T04:18:03.181Z,36.70
2023-02-08T04:20:32.128Z,29.70
2023-02-08T04:23:01.157Z,39.70
2023-02-08T04:25:30.620Z,40.80
2023-02-08T04:28:00.137Z,44.60
2023-02-08T04:30:29.183Z,41.40
2023-02-08T04:33:01.295Z,48.40
2023-02-08T04:35:30.721Z,41.90
2023-02-08T04:37:59.542Z,36.50
2023-02-08T04:40:28.316Z,43.30
2023-02-08T04:42:57.151Z,39.80
2023-02-08T04:45:27.377Z,38.90
2023-02-08T04:47:58.970Z,37.00
2023-02-08T04:50:27.846Z,47.50
2023-02-08T04:52:56.631Z,36.80
2023-02-08T04:55:25.512Z,42.40
2023-02-08T04:57:54.165Z,33.10
2023-02-08T05:00:22.793Z,43.30
2023-02-08T05:02:55.693Z,43.30
2023-02-08T05:05:26.112Z,46.10
2023-02-08T05:07:54.720Z,52.20
2023-02-08T05:10:23.548Z,43.50
2023-02-08T05:12:52.376Z,48.50
2023-02-08T05:15:21.036Z,42.90
2023-02-08T05:17:49.853Z,38.50
2023-02-08T05:20:19.049Z,51.80
2023-02-08T05:22:48.019Z,48.10
2023-02-08T05:25:18.417Z,38.90
2023-02-08T05:27:47.339Z,41.20
2023-02-08T05:30:16.196Z,52.30
2023-02-08T05:32:47.588Z,51.50
2023-02-08T05:35:16.911Z,35.10
2023-02-08T05:37:45.532Z,54.30
2023-02-08T05:40:14.453Z,50.00
2023-02-08T05:42:44.978Z,55.50
2023-02-08T05:45:14.305Z,67.20
2023-02-08T05:47:43.256Z,61.10
2023-02-08T05:50:12.267Z,89.80
2023-02-08T05:52:41.108Z,87.50
2023-02-08T05:55:10.673Z,72.50
2023-02-08T06:00:13.308Z,64.50
2023-02-08T06:02:44.849Z,56.10
2023-02-08T06:05:13.808Z,40.70
2023-02-08T06:07:45.147Z,56.20
2023-02-08T06:10:14.360Z,54.10
2023-02-08T06:12:43.149Z,57.50
2023-02-08T06:15:12.154Z,55.20
2023-02-08T06:17:41.488Z,41.60
2023-02-08T06:20:10.416Z,53.50
2023-02-08T06:22:39.178Z,61.90
2023-02-08T06:25:08.528Z,51.20
2023-02-08T06:27:38.951Z,51.20
2023-02-08T06:30:08.075Z,45.30
2023-02-08T06:32:37.004Z,47.80
2023-02-08T06:35:05.953Z,56.00
2023-02-08T06:37:34.788Z,52.60
2023-02-08T06:40:04.599Z,75.20
2023-02-08T06:42:33.445Z,57.20
2023-02-08T06:45:02.453Z,59.00
2023-02-08T06:47:31.415Z,40.30
2023-02-08T06:50:00.224Z,58.20
2023-02-08T06:52:29.060Z,63.50
2023-02-08T06:54:57.982Z,60.20
2023-02-08T06:57:26.993Z,84.70
2023-02-08T06:59:55.685Z,72.00
2023-02-08T07:02:24.803Z,71.40
2023-02-08T07:04:53.680Z,75.60
2023-02-08T07:07:22.636Z,90.90
2023-02-08T07:09:51.377Z,75.90
2023-02-08T07:12:20.451Z,88.50
2023-02-08T07:14:49.647Z,109.30
2023-02-08T07:17:18.262Z,96.70
2023-02-08T07:19:46.935Z,90.40
2023-02-08T07:22:16.109Z,89.90
2023-02-08T07:24:44.887Z,87.10
2023-02-08T07:27:14.287Z,95.70
2023-02-08T07:29:43.066Z,116.00
2023-02-08T07:32:12.211Z,138.40
2023-02-08T07:34:41.070Z,136.30
2023-02-08T07:37:10.628Z,217.70
2023-02-08T07:39:39.520Z,167.80
2023-02-08T07:42:12.068Z,174.60
2023-02-08T07:44:47.915Z,105.50
2023-02-08T07:47:17.652Z,85.90
2023-02-08T07:49:46.238Z,114.50
2023-02-08T07:52:14.966Z,88.70
2023-02-08T07:54:44.217Z,83.30
2023-02-08T07:57:12.752Z,71.30
2023-02-08T07:59:42.240Z,69.20
2023-02-08T08:02:11.417Z,60.40
2023-02-08T08:04:39.961Z,59.40
2023-02-08T08:07:08.708Z,57.70
2023-02-08T08:09:37.488Z,69.90
2023-02-08T08:12:06.261Z,62.90
2023-02-08T08:14:35.249Z,58.10
2023-02-08T08:17:04.347Z,52.70
2023-02-08T08:19:32.868Z,46.90
2023-02-08T08:22:01.825Z,48.30
2023-02-08T08:24:32.346Z,41.10
2023-02-08T08:27:01.328Z,45.10
2023-02-08T08:29:33.520Z,47.80
2023-02-08T08:32:02.870Z,36.50
2023-02-08T08:34:32.296Z,67.80
2023-02-08T08:37:03.856Z,44.20
2023-02-08T08:39:32.599Z,46.00
2023-02-08T08:42:01.860Z,40.10
2023-02-08T08:44:31.898Z,39.30
2023-02-08T08:47:01.580Z,41.40
2023-02-08T08:49:30.435Z,54.50
2023-02-08T08:51:59.569Z,98.10
2023-02-08T08:54:28.639Z,82.20
2023-02-08T08:56:58.772Z,52.60
2023-02-08T08:59:28.767Z,64.20
2023-02-08T09:01:58.562Z,54.30
2023-02-08T09:04:27.368Z,54.00
2023-02-08T09:07:04.734Z,51.10
2023-02-08T09:09:48.289Z,57.40
2023-02-08T09:12:20.605Z,59.00
2023-02-08T09:14:49.527Z,57.00
2023-02-08T09:17:18.172Z,53.20
2023-02-08T09:19:47.802Z,61.50
2023-02-08T09:22:16.986Z,72.80
2023-02-08T09:24:45.622Z,61.50
2023-02-08T09:27:15.205Z,56.30
2023-02-08T09:29:44.022Z,49.80
2023-02-08T09:32:12.850Z,52.30
2023-02-08T09:34:41.898Z,46.10
2023-02-08T09:37:11.757Z,41.60
2023-02-08T09:39:40.574Z,46.20
2023-02-08T09:42:27.628Z,56.70
2023-02-08T09:44:59.005Z,44.30
2023-02-08T09:47:36.901Z,55.80
2023-02-08T09:50:11.385Z,79.20
2023-02-08T09:52:45.472Z,70.40
2023-02-08T09:55:26.702Z,78.40
2023-02-08T09:57:58.510Z,52.00
2023-02-08T10:00:50.981Z,55.20
2023-02-08T10:03:39.104Z,49.80
2023-02-08T10:06:12.196Z,64.60
2023-02-08T10:08:42.719Z,58.50
2023-02-08T10:11:24.066Z,47.40
2023-02-08T10:14:24.332Z,48.40
2023-02-08T10:17:03.492Z,63.20
2023-02-08T10:20:04.099Z,35.60
2023-02-08T10:22:39.082Z,47.00
2023-02-08T10:25:28.589Z,45.90
2023-02-08T10:28:39.699Z,55.00
2023-02-08T10:31:22.506Z,51.30
2023-02-08T10:34:00.208Z,51.70
2023-02-08T10:36:36.752Z,46.80
2023-02-08T10:39:27.110Z,48.00
2023-02-08T10:41:56.700Z,43.70
2023-02-08T10:44:34.547Z,71.70
2023-02-08T10:47:34.578Z,54.40
2023-02-08T10:50:13.104Z,54.60
2023-02-08T10:52:42.331Z,56.30
2023-02-08T10:55:20.603Z,52.20
2023-02-08T10:57:52.835Z,50.60
2023-02-08T11:00:27.365Z,50.40
2023-02-08T11:03:01.144Z,47.20
2023-02-08T11:05:38.174Z,46.30
2023-02-08T11:08:18.093Z,41.00
2023-02-08T11:11:00.732Z,54.70
2023-02-08T11:13:46.303Z,43.10
2023-02-08T11:16:24.343Z,40.10
2023-02-08T11:18:57.480Z,42.90
2023-02-08T11:21:36.945Z,33.50
2023-02-08T11:24:36.281Z,32.90
2023-02-08T11:28:11.876Z,38.80
2023-02-08T11:31:08.850Z,44.30
2023-02-08T11:33:37.836Z,41.80
2023-02-08T11:36:10.235Z,62.00
2023-02-08T11:38:43.306Z,47.50
2023-02-08T11:41:19.343Z,38.00
2023-02-08T11:44:08.916Z,44.60
2023-02-08T11:46:42.429Z,33.60
2023-02-08T11:49:23.814Z,41.60
2023-02-08T11:51:53.714Z,39.80
2023-02-08T11:54:41.680Z,36.40
2023-02-08T11:57:24.706Z,39.60
2023-02-08T12:00:35.963Z,37.50
2023-02-08T12:03:14.769Z,32.90
2023-02-08T12:05:47.428Z,36.50
2023-02-08T12:08:23.725Z,42.10
2023-02-08T12:11:14.702Z,38.40
2023-02-08T12:14:16.833Z,33.50
2023-02-08T12:17:23.573Z,43.90
2023-02-08T12:20:11.550Z,40.90
2023-02-08T12:23:10.190Z,49.10
2023-02-08T12:25:53.824Z,49.20
2023-02-08T12:28:46.329Z,45.90
2023-02-08T12:31:44.413Z,57.50
2023-02-08T12:34:39.972Z,72.00
2023-02-08T12:37:39.442Z,68.50
2023-02-08T12:40:55.769Z,69.50
2023-02-08T12:43:40.278Z,77.20
2023-02-08T12:46:37.270Z,70.10
2023-02-08T12:49:37.273Z,71.00
2023-02-08T12:52:25.186Z,54.60
2023-02-08T12:55:01.695Z,49.70
2023-02-08T12:57:32.260Z,54.10
2023-02-08T13:00:26.017Z,59.90
2023-02-08T13:03:13.745Z,56.40
2023-02-08T13:06:01.758Z,54.30
2023-02-08T13:08:50.921Z,61.50
2023-02-08T13:11:38.035Z,55.90
2023-02-08T13:14:20.710Z,46.10
2023-02-08T13:16:53.745Z,53.20
2023-02-08T13:20:00.541Z,55.20
2023-02-08T13:22:42.085Z,70.10
2023-02-08T13:25:23.215Z,66.20
2023-02-08T13:27:52.237Z,70.60
2023-02-08T13:30:23.159Z,69.80
2023-02-08T13:35:28.620Z,57.00
2023-02-08T13:38:19.188Z,63.70
2023-02-08T13:47:02.548Z,79.50
2023-02-08T13:49:50.077Z,74.70
2023-02-08T13:52:46.946Z,87.10
2023-02-08T13:55:29.207Z,106.10
2023-02-08T13:58:05.976Z,67.70
2023-02-08T14:00:37.232Z,82.70
2023-02-08T14:03:15.491Z,68.30
2023-02-08T14:05:47.469Z,72.10
2023-02-08T14:08:22.494Z,77.60
2023-02-08T14:11:04.908Z,85.90
2023-02-08T14:13:40.615Z,78.00
2023-02-08T14:16:32.432Z,83.00
2023-02-08T14:19:04.865Z,92.10
2023-02-08T14:21:38.647Z,81.00
2023-02-08T14:24:34.336Z,101.00
2023-02-08T14:27:29.544Z,100.90
2023-02-08T14:30:17.560Z,94.70
2023-02-08T14:32:50.216Z,83.90
2023-02-08T14:35:23.765Z,86.20
2023-02-08T14:38:21.186Z,87.00
2023-02-08T14:41:03.003Z,88.90
2023-02-08T14:43:35.703Z,94.80
2023-02-08T14:46:42.317Z,100.00
2023-02-08T14:49:16.546Z,104.30
2023-02-08T14:52:03.132Z,107.40
2023-02-08T14:54:47.470Z,84.40
2023-02-08T14:57:42.115Z,82.20
2023-02-08T15:00:25.997Z,80.30
2023-02-08T15:02:57.009Z,85.40
2023-02-08T15:05:35.973Z,83.20
2023-02-08T15:08:05.260Z,93.10
2023-02-08T15:10:35.437Z,90.00
2023-02-08T15:13:08.396Z,99.60
2023-02-08T15:15:42.950Z,93.20
2023-02-08T15:18:26.163Z,104.30
2023-02-08T15:20:58.501Z,80.70
2023-02-08T15:23:27.489Z,89.10
2023-02-08T15:26:03.165Z,82.20
2023-02-08T15:28:36.773Z,99.90
2023-02-08T15:31:11.550Z,101.30
2023-02-08T15:33:43.220Z,99.10
2023-02-08T15:36:28.615Z,116.30
2023-02-08T15:39:00.970Z,106.70
2023-02-08T15:41:38.386Z,100.20
2023-02-08T15:44:21.575Z,109.80
2023-02-08T15:46:55.505Z,117.00
2023-02-08T15:49:32.712Z,116.30
2023-02-08T15:52:02.605Z,132.40
2023-02-08T15:57:08.269Z,123.20
2023-02-08T15:59:40.886Z,129.80
2023-02-08T16:02:21.983Z,124.20
2023-02-08T16:04:50.937Z,131.60
2023-02-08T16:07:33.777Z,135.10
2023-02-08T16:10:03.167Z,123.40
2023-02-08T16:12:32.992Z,124.40
2023-02-08T16:17:43.019Z,179.50
2023-02-08T16:20:36.324Z,157.90
2023-02-08T16:23:26.218Z,143.20
2023-02-08T16:25:57.507Z,145.80
2023-02-08T16:28:29.804Z,138.70
2023-02-08T16:31:01.576Z,129.80
2023-02-08T16:33:37.634Z,129.90
2023-02-08T16:36:06.652Z,131.40
2023-02-08T16:38:36.114Z,108.50
2023-02-08T16:41:13.188Z,148.70
2023-02-08T16:43:48.168Z,154.70
2023-02-08T16:46:17.044Z,141.70
2023-02-08T16:48:50.628Z,162.90
2023-02-08T16:51:23.715Z,141.40
2023-02-08T16:53:56.374Z,136.90
2023-02-08T16:56:26.966Z,162.10
2023-02-08T16:58:55.832Z,155.60
2023-02-08T17:01:24.805Z,145.70
2023-02-08T17:03:54.137Z,156.30
2023-02-08T17:06:30.588Z,142.90
2023-02-08T17:09:01.008Z,130.00
2023-02-08T17:11:30.025Z,153.90
2023-02-08T17:13:58.957Z,140.60
2023-02-08T17:16:30.718Z,130.70
2023-02-08T17:19:01.979Z,156.00
2023-02-08T17:21:31.665Z,157.50
2023-02-08T17:24:00.554Z,171.80
2023-02-08T17:26:36.247Z,185.20
2023-02-08T17:29:04.976Z,180.70
2023-02-08T17:31:34.771Z,170.30
2023-02-08T17:34:06.468Z,183.80
2023-02-08T17:36:37.331Z,177.70
2023-02-08T17:39:06.681Z,172.20
2023-02-08T17:41:35.789Z,155.10
2023-02-08T17:44:05.097Z,151.60
2023-02-08T17:46:33.710Z,151.50
2023-02-08T17:49:04.319Z,148.80
2023-02-08T17:51:34.576Z,164.10
2023-02-08T17:56:35.716Z,170.40
2023-02-08T18:01:35.314Z,197.10
2023-02-08T18:04:22.905Z,196.40
2023-02-08T18:07:09.447Z,214.10
2023-02-08T18:10:05.302Z,208.60
2023-02-08T18:12:49.723Z,209.30
2023-02-08T18:15:44.064Z,195.80
2023-02-08T18:18:36.207Z,201.90
2023-02-08T18:21:34.551Z,196.50
2023-02-08T18:24:19.263Z,177.60
2023-02-08T18:27:14.130Z,162.50
2023-02-08T18:30:01.395Z,168.20
2023-02-08T18:33:00.600Z,162.60
2023-02-08T18:35:45.407Z,168.50
2023-02-08T18:38:36.027Z,161.60
2023-02-08T18:41:24.806Z,175.20
2023-02-08T18:44:05.464Z,163.40
2023-02-08T18:46:34.575Z,163.80
2023-02-08T18:49:04.477Z,152.30
2023-02-08T18:51:33.362Z,150.00
2023-02-08T18:54:01.978Z,158.30
2023-02-08T18:56:34.129Z,158.90
2023-02-08T18:59:03.193Z,158.90
2023-02-08T19:01:32.530Z,166.70
2023-02-08T19:04:01.898Z,149.60
2023-02-08T19:06:32.225Z,135.40
2023-02-08T19:09:04.732Z,178.10
2023-02-08T19:11:41.418Z,136.60
2023-02-08T19:14:13.156Z,138.50
2023-02-08T19:16:43.816Z,139.90
2023-02-08T19:19:13.250Z,131.20
2023-02-08T19:21:41.818Z,156.00
2023-02-08T19:24:15.101Z,164.50
2023-02-08T19:26:44.357Z,157.80
2023-02-08T19:29:16.383Z,164.80
2023-02-08T19:31:50.193Z,152.70
2023-02-08T19:34:20.299Z,160.10
2023-02-08T19:36:54.149Z,169.50
2023-02-08T19:39:27.444Z,165.20
2023-02-08T19:41:59.164Z,185.20
2023-02-08T19:44:30.653Z,178.80
2023-02-08T19:46:59.954Z,168.90
2023-02-08T19:49:29.632Z,136.10
2023-02-08T19:51:58.249Z,182.70
2023-02-08T19:54:26.831Z,174.80
2023-02-08T19:56:57.572Z,191.00
2023-02-08T19:59:36.286Z,192.60
2023-02-08T20:02:10.393Z,166.30
2023-02-08T20:04:40.580Z,143.00
2023-02-08T20:07:10.500Z,120.90
2023-02-08T20:09:41.063Z,116.40
2023-02-08T20:12:09.842Z,115.50
2023-02-08T20:14:38.834Z,125.40
2023-02-08T20:17:07.421Z,131.50
2023-02-08T20:19:39.821Z,130.40
2023-02-08T20:22:09.256Z,132.40
2023-02-08T20:24:37.937Z,121.90
2023-02-08T20:27:06.505Z,122.50
2023-02-08T20:29:37.158Z,102.90
2023-02-08T20:32:06.400Z,120.10
2023-02-08T20:34:35.189Z,119.90
2023-02-08T20:37:08.228Z,140.70
2023-02-08T20:39:38.326Z,209.20
2023-02-08T20:42:10.522Z,208.60
2023-02-08T20:44:39.666Z,148.10
2023-02-08T20:47:11.128Z,135.30
2023-02-08T20:49:42.751Z,140.10
2023-02-08T20:52:12.562Z,126.20
2023-02-08T20:54:42.437Z,94.70
2023-02-08T20:57:11.483Z,119.50
2023-02-08T20:59:44.132Z,125.10
2023-02-08T21:02:18.412Z,119.40
2023-02-08T21:04:47.906Z,118.40
2023-02-08T21:07:17.348Z,88.10
2023-02-08T21:09:47.410Z,112.60
2023-02-08T21:12:16.477Z,107.60
2023-02-08T21:14:51.299Z,131.50
2023-02-08T21:17:19.843Z,120.00
2023-02-08T21:19:48.509Z,111.10
2023-02-08T21:22:17.800Z,128.90
2023-02-08T21:24:46.906Z,118.20
2023-02-08T21:27:15.596Z,127.90
2023-02-08T21:29:49.997Z,119.20
2023-02-08T21:32:18.714Z,129.70
2023-02-08T21:34:49.213Z,121.80
2023-02-08T21:37:19.748Z,121.30
2023-02-08T21:39:48.856Z,116.00
2023-02-08T21:42:17.428Z,118.20
2023-02-08T21:44:47.042Z,121.00
2023-02-08T21:47:16.029Z,123.00
2023-02-08T21:50:03.364Z,114.40
2023-02-08T21:52:51.119Z,118.40
2023-02-08T21:55:19.982Z,134.30
2023-02-08T21:57:48.869Z,126.90
2023-02-08T22:00:17.524Z,106.00
2023-02-08T22:02:46.156Z,114.90
2023-02-08T22:05:34.428Z,109.60
2023-02-08T22:08:04.410Z,128.50
2023-02-08T22:10:33.711Z,124.70
2023-02-08T22:13:02.357Z,126.40
2023-02-08T22:15:31.291Z,121.60
2023-02-08T22:18:01.858Z,123.10
2023-02-08T22:20:31.289Z,100.00
2023-02-08T22:23:00.281Z,104.10
2023-02-08T22:25:29.613Z,174.10
2023-02-08T22:27:58.262Z,202.90
2023-02-08T22:30:26.956Z,112.70
2023-02-08T22:32:56.399Z,104.90
2023-02-08T22:35:24.978Z,66.50
2023-02-08T22:37:53.970Z,89.30
2023-02-08T22:40:23.150Z,90.10
2023-02-08T22:42:52.100Z,90.30
2023-02-08T22:45:21.157Z,65.20
2023-02-08T22:47:50.777Z,91.60
2023-02-08T22:50:19.409Z,64.10
2023-02-08T22:52:48.282Z,68.60
2023-02-08T22:55:17.327Z,97.90
2023-02-08T22:57:46.051Z,86.10
2023-02-08T23:00:16.091Z,73.70
2023-02-08T23:02:45.136Z,84.10
2023-02-08T23:05:14.709Z,76.20
2023-02-08T23:07:43.410Z,72.40
2023-02-08T23:10:12.461Z,81.00
2023-02-08T23:12:41.064Z,71.00
2023-02-08T23:15:11.314Z,71.70
2023-02-08T23:17:40.217Z,74.20
2023-02-08T23:20:09.918Z,70.20
2023-02-08T23:22:38.912Z,76.60
2023-02-08T23:25:07.721Z,73.80
2023-02-08T23:27:36.824Z,76.80
2023-02-08T23:30:09.170Z,50.90
2023-02-08T23:32:38.569Z,78.90
2023-02-08T23:35:09.956Z,118.30
2023-02-08T23:37:38.742Z,93.30
2023-02-08T23:40:11.549Z,101.10
2023-02-08T23:42:40.127Z,95.00
2023-02-08T23:45:09.058Z,101.30
2023-02-08T23:47:38.609Z,79.20
2023-02-08T23:50:08.714Z,75.30
2023-02-08T23:52:38.038Z,69.90
2023-02-08T23:55:08.058Z,44.90
2023-02-08T23:57:37.972Z,56.10
